Time;durP1;ratioP1;P1;durP2;ratioP2;P2;SDS_P1;SDS_P2;PMS_P1;PMS_P2;Temp;Humidity;BMP_temperature;BMP_pressure;BME280_temperature;BME280_humidity;BME280_pressure;Samples;Min_cycle;Max_cycle;Signal;HPM_P1;HPM_P2
2022/08/13 00:02:08;;;;;;;6.07;3.70;;;27.90;38.60;;;;;;7373882;19;20014;-86
2022/08/13 00:04:38;;;;;;;5.03;3.30;;;27.80;38.40;;;;;;7393901;19;20014;-86
2022/08/13 00:07:08;;;;;;;9.30;3.50;;;27.70;38.20;;;;;;7369476;19;20074;-86
2022/08/13 00:09:43;;;;;;;8.00;3.20;;;27.70;37.90;;;;;;7371954;19;20590;-86
2022/08/13 00:14:57;;;;;;;7.10;3.30;;;27.70;37.80;;;;;;7372059;19;20118;-86
2022/08/13 00:17:26;;;;;;;8.43;3.30;;;27.70;37.90;;;;;;7369584;19;20074;-85
2022/08/13 00:19:55;;;;;;;4.43;3.38;;;27.70;37.90;;;;;;7370456;19;20019;-86
2022/08/13 00:22:25;;;;;;;6.32;3.42;;;27.60;38.00;;;;;;7391753;19;20023;-85
2022/08/13 00:24:57;;;;;;;5.97;3.28;;;27.60;38.10;;;;;;7371475;19;20449;-86
2022/08/13 00:27:26;;;;;;;10.45;3.70;;;27.60;38.20;;;;;;7369363;19;20021;-86
2022/08/13 00:29:56;;;;;;;3.53;2.90;;;27.50;38.10;;;;;;7369937;19;20355;-86
2022/08/13 00:32:29;;;;;;;8.05;3.25;;;27.50;38.00;;;;;;7368648;19;20023;-86
2022/08/13 00:34:59;;;;;;;4.05;2.97;;;27.50;38.10;;;;;;7369846;19;20014;-85
2022/08/13 00:37:29;;;;;;;5.00;3.40;;;27.50;37.90;;;;;;7389530;19;20015;-86
2022/08/13 00:40:00;;;;;;;5.75;3.25;;;27.40;37.90;;;;;;7370077;19;20018;-86
2022/08/13 00:42:29;;;;;;;5.65;3.20;;;27.40;38.10;;;;;;7370745;19;20113;-85
2022/08/13 00:44:58;;;;;;;11.90;3.03;;;27.40;38.10;;;;;;7370671;19;20015;-86
2022/08/13 00:50:12;;;;;;;8.45;3.30;;;27.40;38.40;;;;;;7370166;19;20018;-85
2022/08/13 00:52:47;;;;;;;4.43;3.28;;;27.30;38.40;;;;;;7390961;19;20038;-84
2022/08/13 00:55:23;;;;;;;4.00;3.25;;;27.20;38.60;;;;;;7366637;19;20046;-85
2022/08/13 00:57:55;;;;;;;6.60;3.10;;;27.20;38.50;;;;;;7368513;19;20018;-85
2022/08/13 01:00:26;;;;;;;7.40;3.22;;;27.20;38.50;;;;;;7367753;19;20014;-85
2022/08/13 01:02:57;;;;;;;4.60;2.93;;;27.20;38.60;;;;;;7369378;19;20081;-85
2022/08/13 01:05:26;;;;;;;3.95;3.10;;;27.20;39.40;;;;;;7367984;19;20729;-86
2022/08/13 01:07:57;;;;;;;5.63;3.15;;;27.20;38.80;;;;;;7367417;19;20068;-85
2022/08/13 01:10:28;;;;;;;6.57;3.40;;;27.20;38.90;;;;;;7389037;19;20027;-85
2022/08/13 01:12:58;;;;;;;5.05;3.03;;;27.20;39.00;;;;;;7367134;19;20113;-85
2022/08/13 01:15:28;;;;;;;4.13;3.30;;;27.20;39.00;;;;;;7368040;19;20090;-85
2022/08/13 01:17:57;;;;;;;4.40;3.20;;;27.20;39.40;;;;;;7369192;19;20015;-85
2022/08/13 01:20:29;;;;;;;4.45;3.42;;;27.20;39.30;;;;;;7365950;19;20018;-85
2022/08/13 01:23:01;;;;;;;8.00;3.28;;;27.20;39.30;;;;;;7368215;19;20027;-85
2022/08/13 01:25:33;;;;;;;8.40;3.00;;;27.10;39.30;;;;;;7395958;19;20064;-85
2022/08/13 01:28:13;;;;;;;6.68;3.25;;;27.10;39.10;;;;;;7375564;19;20010;-85
2022/08/13 01:30:47;;;;;;;5.35;3.47;;;27.10;39.20;;;;;;7378853;19;20605;-85
2022/08/13 01:33:17;;;;;;;8.75;3.17;;;27.00;39.30;;;;;;7367350;19;20062;-85
2022/08/13 01:35:46;;;;;;;4.28;3.03;;;27.00;39.20;;;;;;7368209;19;20081;-85
2022/08/13 01:38:19;;;;;;;5.75;2.90;;;27.00;39.00;;;;;;7367613;19;20095;-84
2022/08/13 01:40:48;;;;;;;8.20;3.67;;;27.00;39.00;;;;;;7388757;19;20018;-84
2022/08/13 01:43:19;;;;;;;5.28;2.72;;;27.00;39.00;;;;;;7366339;19;20521;-84
2022/08/13 01:45:51;;;;;;;7.87;2.97;;;27.00;38.90;;;;;;7365652;19;20007;-84
2022/08/13 01:51:08;;;;;;;8.85;3.10;;;27.00;39.20;;;;;;7366351;19;20051;-84
2022/08/13 01:53:40;;;;;;;5.70;3.28;;;27.00;39.50;;;;;;7365510;19;20018;-84
2022/08/13 01:56:10;;;;;;;5.82;3.20;;;26.90;39.90;;;;;;7367833;19;20051;-84
2022/08/13 01:58:39;;;;;;;9.88;3.70;;;26.90;40.40;;;;;;7388606;19;20014;-84
2022/08/13 02:01:08;;;;;;;5.10;3.50;;;26.90;40.70;;;;;;7365122;19;20085;-84
2022/08/13 02:03:37;;;;;;;7.00;3.28;;;26.80;40.70;;;;;;7365342;19;20084;-84
2022/08/13 02:06:06;;;;;;;4.47;3.15;;;26.80;40.80;;;;;;7365959;19;20010;-85
2022/08/13 02:08:38;;;;;;;8.30;3.65;;;26.80;40.80;;;;;;7367144;19;20019;-84
2022/08/13 02:11:10;;;;;;;8.18;3.80;;;26.70;40.90;;;;;;7368429;19;20011;-85
2022/08/13 02:13:39;;;;;;;3.97;3.42;;;26.70;40.80;;;;;;7388912;19;20030;-85
2022/08/13 02:16:09;;;;;;;7.32;3.60;;;26.70;40.80;;;;;;7365578;19;20078;-85
2022/08/13 02:18:39;;;;;;;6.25;3.50;;;26.70;40.90;;;;;;7366527;19;20089;-85
2022/08/13 02:21:08;;;;;;;4.10;3.40;;;26.70;40.90;;;;;;7366534;19;20423;-85
2022/08/13 02:23:37;;;;;;;6.95;3.30;;;26.70;40.90;;;;;;7366432;19;20014;-85
2022/08/13 02:26:09;;;;;;;6.10;3.72;;;26.60;40.80;;;;;;7367500;19;20022;-85
2022/08/13 02:28:39;;;;;;;7.93;3.35;;;26.60;41.10;;;;;;7386929;19;20073;-85
2022/08/13 02:31:10;;;;;;;5.97;3.35;;;26.60;41.10;;;;;;7370519;19;20034;-84
2022/08/13 02:33:38;;;;;;;6.53;3.60;;;26.50;41.10;;;;;;7372522;19;20010;-84
2022/08/13 02:36:10;;;;;;;6.72;4.60;;;26.50;41.70;;;;;;7374372;19;20480;-85
2022/08/13 02:38:40;;;;;;;10.77;4.13;;;26.40;41.10;;;;;;7374423;19;20011;-85
2022/08/13 02:43:53;;;;;;;4.38;3.40;;;26.40;41.20;;;;;;7388645;19;20018;-85
2022/08/13 02:46:24;;;;;;;5.28;3.63;;;26.30;41.20;;;;;;7391703;19;20029;-85
2022/08/13 02:48:53;;;;;;;5.22;3.05;;;26.30;41.40;;;;;;7373455;19;20021;-85
2022/08/13 02:51:23;;;;;;;6.63;3.25;;;26.30;41.50;;;;;;7374532;19;20490;-85
2022/08/13 02:53:52;;;;;;;8.48;3.85;;;26.30;41.50;;;;;;7374763;19;20014;-85
2022/08/13 02:56:23;;;;;;;7.53;3.67;;;26.30;41.60;;;;;;7373070;19;20505;-85
2022/08/13 02:58:52;;;;;;;5.95;3.35;;;26.20;41.80;;;;;;7394950;19;20485;-84
2022/08/13 03:01:22;;;;;;;4.05;3.28;;;26.20;41.80;;;;;;7372190;19;20052;-84
2022/08/13 03:03:54;;;;;;;6.13;3.45;;;26.10;41.70;;;;;;7371686;19;20021;-84
2022/08/13 03:06:24;;;;;;;6.22;3.25;;;26.10;41.90;;;;;;7372118;19;20066;-84
2022/08/13 03:08:53;;;;;;;6.20;3.70;;;26.10;41.90;;;;;;7375800;19;20015;-85
2022/08/13 03:11:25;;;;;;;5.38;3.60;;;26.10;41.90;;;;;;7372870;19;20014;-84
2022/08/13 03:13:58;;;;;;;7.15;3.50;;;26.00;41.80;;;;;;7386819;19;20031;-85
2022/08/13 03:16:28;;;;;;;5.38;3.35;;;26.00;41.70;;;;;;7394889;19;20460;-84
2022/08/13 03:18:59;;;;;;;5.57;3.55;;;26.00;41.60;;;;;;7373572;19;20018;-84
2022/08/13 03:21:30;;;;;;;4.38;2.85;;;26.00;41.70;;;;;;7373320;19;20010;-84
2022/08/13 03:23:59;;;;;;;6.90;3.30;;;25.90;41.70;;;;;;7373482;19;20014;-85
2022/08/13 03:26:31;;;;;;;7.18;3.72;;;25.90;41.70;;;;;;7375198;19;20020;-84
2022/08/13 03:29:01;;;;;;;5.80;3.45;;;25.80;41.80;;;;;;7371000;19;20025;-85
2022/08/13 03:31:30;;;;;;;5.88;3.28;;;25.80;42.00;;;;;;7395021;19;20006;-84
2022/08/13 03:34:01;;;;;;;12.35;3.05;;;25.70;42.20;;;;;;7375803;19;20015;-85
2022/08/13 03:36:30;;;;;;;5.45;3.47;;;25.70;42.60;;;;;;7375562;19;20006;-85
2022/08/13 03:38:59;;;;;;;4.78;3.67;;;25.70;42.50;;;;;;7373178;19;20018;-85
2022/08/13 03:41:34;;;;;;;7.30;3.45;;;25.70;42.80;;;;;;7373957;19;20018;-84
2022/08/13 03:44:05;;;;;;;4.90;3.45;;;25.60;42.80;;;;;;7369423;19;20093;-84
2022/08/13 03:46:34;;;;;;;4.55;3.33;;;25.60;43.00;;;;;;7392458;19;20458;-84
2022/08/13 03:49:03;;;;;;;5.90;3.50;;;25.60;43.20;;;;;;7371542;19;20011;-84
2022/08/13 03:51:32;;;;;;;4.03;3.40;;;25.50;43.20;;;;;;7372757;19;20015;-84
2022/08/13 03:54:01;;;;;;;3.28;2.97;;;25.50;43.00;;;;;;7374308;19;20764;-84
2022/08/13 03:56:32;;;;;;;7.43;3.22;;;25.50;43.00;;;;;;7373587;19;20025;-84
2022/08/13 03:59:01;;;;;;;4.80;3.22;;;25.40;42.70;;;;;;7371766;19;20010;-84
2022/08/13 04:01:30;;;;;;;5.25;3.25;;;25.30;42.60;;;;;;7393279;19;20026;-83
2022/08/13 04:03:59;;;;;;;6.10;2.90;;;25.20;42.40;;;;;;7371269;19;20034;-86
2022/08/13 04:06:29;;;;;;;4.75;3.20;;;25.20;42.40;;;;;;7374299;19;20018;-84
2022/08/13 04:09:00;;;;;;;5.97;3.05;;;25.20;42.60;;;;;;7375932;19;20312;-84
2022/08/13 04:11:28;;;;;;;4.97;3.00;;;25.20;42.70;;;;;;7377569;19;20021;-84
2022/08/13 04:14:00;;;;;;;4.57;3.00;;;25.20;42.80;;;;;;7375085;19;20386;-85
2022/08/13 04:16:29;;;;;;;9.73;4.20;;;25.20;42.60;;;;;;7394796;19;20073;-84
2022/08/13 04:18:58;;;;;;;8.70;3.70;;;25.20;42.70;;;;;;7374590;19;20014;-85
2022/08/13 04:21:31;;;;;;;13.98;3.55;;;25.20;42.60;;;;;;7374101;19;20014;-84
2022/08/13 04:24:02;;;;;;;13.88;3.42;;;25.20;42.80;;;;;;7374002;19;20062;-84
2022/08/13 04:26:30;;;;;;;5.00;3.30;;;25.20;42.80;;;;;;7374913;19;20782;-84
2022/08/13 04:29:08;;;;;;;14.88;3.63;;;25.20;42.80;;;;;;7373134;19;20028;-84
2022/08/13 04:31:41;;;;;;;8.07;3.10;;;25.20;43.50;;;;;;7394782;19;20437;-84
2022/08/13 04:34:13;;;;;;;5.05;3.33;;;25.20;42.80;;;;;;7372676;19;20027;-83
2022/08/13 04:36:42;;;;;;;5.45;3.00;;;25.20;42.50;;;;;;7371282;19;20085;-85
2022/08/13 04:39:11;;;;;;;5.05;2.95;;;25.20;42.50;;;;;;7373206;19;20010;-84
2022/08/13 04:41:40;;;;;;;7.07;3.17;;;25.20;42.50;;;;;;7373047;19;20010;-84
2022/08/13 04:44:11;;;;;;;6.32;3.30;;;25.20;42.70;;;;;;7372088;19;20023;-84
2022/08/13 04:46:41;;;;;;;5.25;3.28;;;25.20;42.90;;;;;;7393136;19;20022;-85
2022/08/13 04:49:10;;;;;;;18.02;3.80;;;25.10;43.30;;;;;;7371845;19;20329;-83
2022/08/13 04:51:38;;;;;;;5.13;3.40;;;25.10;43.50;;;;;;7370429;19;20027;-84
2022/08/13 04:54:07;;;;;;;7.13;3.40;;;25.10;43.60;;;;;;7369930;19;20010;-83
2022/08/13 04:56:36;;;;;;;9.45;3.53;;;25.10;43.80;;;;;;7370715;19;20011;-84
2022/08/13 04:59:05;;;;;;;7.85;3.30;;;25.10;43.90;;;;;;7372263;19;20380;-84
2022/08/13 05:01:37;;;;;;;6.18;3.53;;;25.10;43.90;;;;;;7396929;19;20086;-84
2022/08/13 05:04:06;;;;;;;6.32;3.20;;;25.00;43.80;;;;;;7376024;19;20015;-84
2022/08/13 05:06:35;;;;;;;13.68;3.33;;;25.10;43.90;;;;;;7374130;19;20010;-84
2022/08/13 05:09:04;;;;;;;6.72;3.33;;;25.00;43.40;;;;;;7373795;19;20035;-83
2022/08/13 05:11:36;;;;;;;7.15;3.53;;;25.00;43.10;;;;;;7373748;19;20202;-84
2022/08/13 05:14:04;;;;;;;7.50;3.15;;;25.00;43.10;;;;;;7378517;19;20018;-84
2022/08/13 05:16:39;;;;;;;4.97;3.08;;;25.00;43.10;;;;;;7403649;19;20074;-84
2022/08/13 05:19:08;;;;;;;5.30;3.40;;;24.90;43.10;;;;;;7375177;19;20338;-84
2022/08/13 05:21:37;;;;;;;5.57;3.60;;;24.90;43.20;;;;;;7373111;19;20030;-85
2022/08/13 05:24:06;;;;;;;7.95;3.38;;;24.90;43.40;;;;;;7374989;19;20639;-86
2022/08/13 05:26:35;;;;;;;6.28;3.45;;;24.90;43.70;;;;;;7373803;19;20077;-85
2022/08/13 05:29:05;;;;;;;6.93;3.65;;;25.00;44.10;;;;;;7369195;19;20089;-85
2022/08/13 05:31:37;;;;;;;5.55;3.50;;;25.00;44.30;;;;;;7397640;19;20019;-85
2022/08/13 05:34:10;;;;;;;4.88;2.90;;;24.90;44.10;;;;;;7370537;19;20063;-86
2022/08/13 05:36:42;;;;;;;6.18;3.10;;;24.90;43.60;;;;;;7374053;19;20466;-85
2022/08/13 05:39:15;;;;;;;5.68;3.20;;;24.90;43.70;;;;;;7376146;19;20083;-85
2022/08/13 05:41:46;;;;;;;6.85;3.17;;;24.90;43.70;;;;;;7377293;19;20018;-85
2022/08/13 05:44:15;;;;;;;;;;;24.90;43.60;;;;;;7379184;19;20122;-85
2022/08/13 05:46:46;;;;;;;9.85;3.45;;;24.90;44.10;;;;;;7396287;19;19939;-84
2022/08/13 05:49:15;;;;;;;;;;;24.90;44.20;;;;;;7371059;19;20010;-85
2022/08/13 05:51:44;;;;;;;5.63;3.15;;;25.10;44.40;;;;;;7370514;19;19919;-84
2022/08/13 05:54:16;;;;;;;7.35;3.38;;;25.10;44.40;;;;;;7371415;19;20006;-84
2022/08/13 05:56:49;;;;;;;;;;;25.20;44.60;;;;;;7372208;19;20022;-85
2022/08/13 06:04:43;;;;;;;9.63;3.92;;;25.30;45.00;;;;;;7394159;19;20042;-85
2022/08/13 06:07:13;;;;;;;8.75;3.40;;;25.30;44.90;;;;;;7371496;19;20470;-85
2022/08/13 06:09:42;;;;;;;16.20;3.63;;;25.40;44.90;;;;;;7372625;19;20010;-85
2022/08/13 06:12:11;;;;;;;9.82;3.67;;;25.40;44.80;;;;;;7371598;19;20077;-85
2022/08/13 06:14:41;;;;;;;5.28;3.38;;;25.50;45.00;;;;;;7372685;19;20031;-85
2022/08/13 06:17:14;;;;;;;8.45;3.30;;;25.50;45.00;;;;;;7373402;19;20070;-85
2022/08/13 06:19:46;;;;;;;14.77;3.75;;;25.50;45.00;;;;;;7392991;19;20031;-85
2022/08/13 06:22:19;;;;;;;8.10;3.65;;;25.60;45.10;;;;;;7372282;19;20021;-85
2022/08/13 06:24:50;;;;;;;8.68;3.60;;;25.70;45.20;;;;;;7371343;19;20011;-85
2022/08/13 06:27:19;;;;;;;5.37;2.83;;;25.70;45.20;;;;;;7372104;19;20011;-85
2022/08/13 06:29:50;;;;;;;9.18;3.45;;;25.80;45.20;;;;;;7369802;19;20253;-85
2022/08/13 06:32:23;;;;;;;11.95;3.55;;;25.80;45.20;;;;;;7371828;19;20449;-85
2022/08/13 06:34:55;;;;;;;7.47;3.15;;;25.90;45.20;;;;;;7393499;19;20022;-85
2022/08/13 06:37:24;;;;;;;8.70;3.30;;;25.90;45.00;;;;;;7370521;19;20590;-85
2022/08/13 06:39:55;;;;;;;5.47;3.30;;;26.00;44.80;;;;;;7370103;19;20022;-84
2022/08/13 06:42:24;;;;;;;4.45;3.42;;;26.00;44.50;;;;;;7370913;19;20013;-84
2022/08/13 06:44:55;;;;;;;4.72;2.80;;;26.10;44.40;;;;;;7369106;19;20051;-84
2022/08/13 06:47:29;;;;;;;4.93;3.10;;;26.10;44.40;;;;;;7372476;19;20015;-85
2022/08/13 06:49:59;;;;;;;5.10;2.85;;;26.20;44.50;;;;;;7373245;19;20253;-85
2022/08/13 06:52:29;;;;;;;5.47;3.33;;;26.30;44.90;;;;;;7396719;19;20010;-85
2022/08/13 06:54:58;;;;;;;19.48;3.13;;;26.40;45.00;;;;;;7375462;19;20037;-86
2022/08/13 06:57:27;;;;;;;9.20;3.05;;;26.50;45.50;;;;;;7373223;19;20026;-85
2022/08/13 06:59:57;;;;;;;11.48;3.10;;;26.50;45.60;;;;;;7375113;19;20105;-85
2022/08/13 07:02:31;;;;;;;4.70;2.42;;;26.60;45.30;;;;;;7372304;19;20006;-84
2022/08/13 07:04:59;;;;;;;7.63;3.08;;;26.60;44.60;;;;;;7373789;19;20028;-86
2022/08/13 07:07:30;;;;;;;3.97;2.60;;;26.70;44.00;;;;;;7397146;19;20018;-86
2022/08/13 07:09:59;;;;;;;7.47;2.40;;;26.80;43.20;;;;;;7378111;19;20027;-85
2022/08/13 07:12:28;;;;;;;11.57;2.90;;;26.90;42.00;;;;;;7371367;19;20517;-84
2022/08/13 07:14:57;;;;;;;5.45;2.70;;;27.00;41.80;;;;;;7371320;19;20086;-85
2022/08/13 07:17:30;;;;;;;5.75;2.60;;;27.10;42.00;;;;;;7369933;19;20021;-84
2022/08/13 07:20:03;;;;;;;5.88;2.42;;;27.10;41.60;;;;;;7373282;19;20011;-83
2022/08/13 07:22:33;;;;;;;3.92;2.42;;;27.20;40.80;;;;;;7396309;19;20014;-84
2022/08/13 07:25:02;;;;;;;7.70;2.22;;;27.20;40.00;;;;;;7375359;19;20025;-85
2022/08/13 07:27:35;;;;;;;7.43;2.47;;;27.30;39.30;;;;;;7376915;19;20022;-84
2022/08/13 07:30:05;;;;;;;6.50;2.40;;;27.40;39.10;;;;;;7374221;19;20074;-84
2022/08/13 07:32:44;;;;;;;4.95;2.25;;;27.40;38.80;;;;;;7375336;19;20015;-84
2022/08/13 07:35:18;;;;;;;5.28;2.30;;;27.50;38.30;;;;;;7375525;19;20087;-84
2022/08/13 07:37:46;;;;;;;5.40;2.47;;;27.50;37.70;;;;;;7394792;19;20025;-84
2022/08/13 07:40:16;;;;;;;12.32;2.20;;;27.60;37.60;;;;;;7375722;19;20036;-84
2022/08/13 07:42:45;;;;;;;4.32;1.80;;;27.70;37.60;;;;;;7374724;19;20010;-84
2022/08/13 07:45:24;;;;;;;6.00;2.13;;;27.70;37.10;;;;;;7376782;19;20074;-85
2022/08/13 07:47:59;;;;;;;2.97;2.13;;;27.70;36.80;;;;;;7376071;19;20022;-85
2022/08/13 07:50:29;;;;;;;3.28;1.90;;;27.70;36.60;;;;;;7375638;19;20445;-85
2022/08/13 07:52:59;;;;;;;4.70;1.90;;;27.70;36.40;;;;;;7374688;19;20028;-84
2022/08/13 07:55:30;;;;;;;7.55;2.20;;;27.80;36.30;;;;;;7398852;19;20014;-85
2022/08/13 07:57:59;;;;;;;4.28;1.85;;;27.80;36.10;;;;;;7378768;19;20034;-85
2022/08/13 08:00:29;;;;;;;3.55;2.00;;;27.90;36.00;;;;;;7375687;19;20378;-83
2022/08/13 08:03:03;;;;;;;7.23;2.03;;;27.90;35.90;;;;;;7375907;19;20010;-85
2022/08/13 08:05:36;;;;;;;5.07;1.60;;;27.90;35.50;;;;;;7375058;19;20438;-84
2022/08/13 08:08:06;;;;;;;3.75;1.60;;;27.90;35.60;;;;;;7371295;19;20050;-85
2022/08/13 08:45:18;;;;;;;4.45;2.00;;;28.30;34.50;;;;;;7373891;19;20447;-88
2022/08/13 08:48:03;;;;;;;5.95;1.83;;;28.30;34.60;;;;;;7382381;19;20592;-83
2022/08/13 09:00:39;;;;;;;3.60;1.90;;;28.50;34.20;;;;;;7370621;19;20018;-84
2022/08/13 09:03:10;;;;;;;8.85;1.67;;;28.50;34.10;;;;;;7371478;19;20022;-88
2022/08/13 09:05:39;;;;;;;3.72;1.75;;;28.50;34.20;;;;;;7377095;19;20006;-87
2022/08/13 09:08:09;;;;;;;5.75;1.63;;;28.50;34.30;;;;;;7370778;19;20756;-85
2022/08/13 09:10:39;;;;;;;3.97;1.60;;;28.60;34.70;;;;;;7371729;19;20014;-87
2022/08/13 09:13:08;;;;;;;4.20;1.80;;;28.60;34.50;;;;;;7397437;19;20065;-86
2022/08/13 09:15:42;;;;;;;2.85;1.50;;;28.60;34.40;;;;;;7370839;19;20477;-84
2022/08/13 09:18:16;;;;;;;5.25;1.50;;;28.60;34.30;;;;;;7369412;19;20010;-85
2022/08/13 09:20:47;;;;;;;3.13;1.60;;;28.70;34.30;;;;;;7370016;19;20461;-77
2022/08/13 09:23:18;;;;;;;2.80;1.48;;;28.70;33.90;;;;;;7367589;19;20844;-79
2022/08/13 09:25:50;;;;;;;3.17;1.65;;;28.70;33.70;;;;;;7366806;19;20411;-77
2022/08/13 09:28:22;;;;;;;2.15;1.48;;;28.80;34.00;;;;;;7391636;19;20022;-82
2022/08/13 09:30:55;;;;;;;1.45;1.35;;;28.80;33.70;;;;;;7368269;19;20047;-80
2022/08/13 09:33:28;;;;;;;2.78;1.50;;;28.80;33.70;;;;;;7367101;19;20021;-81
2022/08/13 09:35:57;;;;;;;4.60;1.55;;;28.90;33.60;;;;;;7366058;19;20029;-80
2022/08/13 09:38:26;;;;;;;7.45;1.75;;;28.90;33.20;;;;;;7365764;19;20085;-81
2022/08/13 09:41:02;;;;;;;2.35;1.38;;;28.90;33.30;;;;;;7366389;19;20014;-82
2022/08/13 09:43:38;;;;;;;11.27;1.80;;;28.90;33.40;;;;;;7388738;19;20014;-81
2022/08/13 09:46:11;;;;;;;4.35;1.40;;;28.90;33.40;;;;;;7367544;19;20119;-81
2022/08/13 09:48:40;;;;;;;7.28;1.50;;;29.00;33.20;;;;;;7366746;19;20014;-81
2022/08/13 09:51:13;;;;;;;6.57;1.40;;;29.00;32.70;;;;;;7368567;19;20022;-80
2022/08/13 09:53:43;;;;;;;7.65;1.50;;;29.10;32.70;;;;;;7366249;19;20021;-80
2022/08/13 09:56:13;;;;;;;3.55;1.48;;;29.10;32.70;;;;;;7367215;19;20456;-81
2022/08/13 09:58:41;;;;;;;6.80;1.33;;;29.10;32.60;;;;;;7365610;19;20120;-81
2022/08/13 10:01:16;;;;;;;5.53;1.40;;;29.20;32.10;;;;;;7386385;19;20082;-81
2022/08/13 10:03:50;;;;;;;2.17;1.48;;;29.20;32.10;;;;;;7366889;19;20087;-81
2022/08/13 10:06:19;;;;;;;1.48;1.38;;;29.20;31.80;;;;;;7367924;19;20042;-82
2022/08/13 10:08:49;;;;;;;2.38;1.30;;;29.30;31.50;;;;;;7367870;19;20013;-81
2022/08/13 10:11:18;;;;;;;1.83;1.52;;;29.40;31.20;;;;;;7367851;19;20086;-81
2022/08/13 10:13:47;;;;;;;4.50;1.35;;;29.40;31.10;;;;;;7367922;19;20019;-81
2022/08/13 10:16:18;;;;;;;1.88;1.40;;;29.40;31.10;;;;;;7389716;19;20010;-80
2022/08/13 10:18:47;;;;;;;6.75;1.67;;;29.50;30.60;;;;;;7367519;19;20010;-81
2022/08/13 10:21:16;;;;;;;6.68;1.70;;;29.50;30.60;;;;;;7367922;19;20094;-81
2022/08/13 10:23:45;;;;;;;10.63;2.80;;;29.40;30.40;;;;;;7368349;19;20010;-81
2022/08/13 10:26:14;;;;;;;5.82;1.83;;;29.50;30.40;;;;;;7365184;19;20101;-80
2022/08/13 10:28:42;;;;;;;2.45;1.20;;;29.50;30.10;;;;;;7367099;19;20031;-81
2022/08/13 10:31:12;;;;;;;5.75;1.20;;;29.60;29.80;;;;;;7386133;19;20111;-81
2022/08/13 10:33:43;;;;;;;2.33;1.35;;;29.60;29.90;;;;;;7367718;19;20082;-82
2022/08/13 10:36:16;;;;;;;2.22;1.48;;;29.60;30.00;;;;;;7365949;19;20441;-81
2022/08/13 10:38:45;;;;;;;1.42;1.23;;;29.80;29.90;;;;;;7365499;19;20070;-82
2022/08/13 10:41:13;;;;;;;4.65;1.75;;;29.80;29.70;;;;;;7366143;19;20368;-82
2022/08/13 10:43:45;;;;;;;3.35;1.20;;;29.90;29.90;;;;;;7363886;19;20054;-81
2022/08/13 10:46:17;;;;;;;4.25;1.33;;;29.80;29.90;;;;;;7385455;19;20753;-81
2022/08/13 10:48:55;;;;;;;2.85;1.40;;;29.90;30.00;;;;;;7365020;19;20015;-81
2022/08/13 10:51:24;;;;;;;1.92;1.15;;;30.00;30.10;;;;;;7368432;19;20031;-82
2022/08/13 10:54:01;;;;;;;1.83;1.08;;;29.90;29.90;;;;;;7374315;19;20452;-81
2022/08/13 10:56:32;;;;;;;2.05;1.35;;;30.00;29.50;;;;;;7377268;19;20706;-82
2022/08/13 10:59:05;;;;;;;6.22;1.42;;;30.10;29.70;;;;;;7377169;19;20021;-82
2022/08/13 11:01:35;;;;;;;3.78;1.40;;;30.10;29.70;;;;;;7387820;19;20122;-82
2022/08/13 11:04:06;;;;;;;3.45;1.30;;;30.20;29.80;;;;;;7397296;19;20098;-82
2022/08/13 11:06:37;;;;;;;1.55;1.30;;;30.20;29.70;;;;;;7374627;19;20074;-81
2022/08/13 11:09:11;;;;;;;3.22;1.58;;;30.30;29.90;;;;;;7372995;19;20050;-82
2022/08/13 11:11:40;;;;;;;5.30;1.60;;;30.30;29.50;;;;;;7376558;19;20011;-82
2022/08/13 11:14:10;;;;;;;2.72;1.40;;;30.40;29.50;;;;;;7372162;19;20092;-82
2022/08/13 11:19:26;;;;;;;;;;;30.50;29.00;;;;;;7395427;19;20018;-82
2022/08/13 11:21:56;;;;;;;6.03;1.38;;;30.50;29.20;;;;;;7374664;19;19915;-81
2022/08/13 11:24:25;;;;;;;2.20;1.58;;;30.60;29.10;;;;;;7379825;19;20131;-85
2022/08/13 11:26:54;;;;;;;4.55;1.40;;;30.60;29.30;;;;;;7372701;19;20010;-83
2022/08/13 11:29:22;;;;;;;3.47;1.75;;;30.60;29.40;;;;;;7372031;19;20109;-80
2022/08/13 11:31:51;;;;;;;4.05;1.30;;;30.60;29.40;;;;;;7373347;19;20010;-81
2022/08/13 11:34:24;;;;;;;3.90;1.40;;;30.70;29.80;;;;;;7391550;19;20037;-82
2022/08/13 11:36:53;;;;;;;4.70;1.60;;;30.80;28.80;;;;;;7371090;19;20015;-82
2022/08/13 11:39:22;;;;;;;2.25;1.40;;;30.80;28.90;;;;;;7371686;19;20011;-83
2022/08/13 11:41:51;;;;;;;1.90;1.30;;;30.90;29.00;;;;;;7372438;19;20456;-82
2022/08/13 11:44:20;;;;;;;4.40;1.23;;;30.90;28.50;;;;;;7370808;19;20087;-82
2022/08/13 11:46:49;;;;;;;5.07;1.40;;;30.90;28.40;;;;;;7370936;19;20048;-82
2022/08/13 11:49:20;;;;;;;7.97;1.67;;;31.00;28.20;;;;;;7391383;19;20014;-82
2022/08/13 11:51:51;;;;;;;4.38;1.13;;;31.00;27.80;;;;;;7373134;19;20023;-81
2022/08/13 11:54:20;;;;;;;3.13;1.40;;;31.10;27.90;;;;;;7374214;19;20034;-82
2022/08/13 11:56:49;;;;;;;2.13;1.20;;;31.10;27.90;;;;;;7371339;19;20017;-81
2022/08/13 11:59:18;;;;;;;1.92;1.40;;;31.10;27.60;;;;;;7371050;19;20030;-81
2022/08/13 12:01:47;;;;;;;2.58;1.15;;;31.10;27.90;;;;;;7369470;19;20043;-79
2022/08/13 12:04:16;;;;;;;3.03;1.33;;;31.20;28.00;;;;;;7389744;19;20023;-80
2022/08/13 12:06:45;;;;;;;2.45;1.40;;;31.20;27.80;;;;;;7369711;19;20022;-81
2022/08/13 12:09:17;;;;;;;3.47;1.15;;;31.20;27.90;;;;;;7368609;19;20010;-80
2022/08/13 12:11:45;;;;;;;3.92;1.25;;;31.30;28.10;;;;;;7370837;19;20047;-81
2022/08/13 12:14:14;;;;;;;5.20;1.50;;;31.30;28.10;;;;;;7369663;19;20412;-81
2022/08/13 12:16:43;;;;;;;2.83;1.30;;;31.40;27.90;;;;;;7375620;19;20020;-83
2022/08/13 12:19:13;;;;;;;4.40;1.33;;;31.40;27.90;;;;;;7391852;19;20011;-84
2022/08/13 12:21:42;;;;;;;1.20;1.10;;;31.50;27.80;;;;;;7367784;19;20019;-84
2022/08/13 12:24:10;;;;;;;1.48;1.08;;;31.50;27.60;;;;;;7370112;19;20050;-85
2022/08/13 12:27:02;;;;;;;1.88;1.20;;;31.60;27.40;;;;;;7371591;19;20018;-86
2022/08/13 12:29:33;;;;;;;5.20;1.58;;;31.70;27.00;;;;;;7371114;19;20025;-84
2022/08/13 12:32:04;;;;;;;1.20;1.00;;;31.70;27.10;;;;;;7321113;19;20018;-84
2022/08/13 12:34:46;;;;;;;3.35;1.00;;;31.70;27.30;;;;;;7393686;19;20038;-86
2022/08/13 12:37:23;;;;;;;2.40;1.10;;;31.70;27.30;;;;;;7369138;19;20465;-84
2022/08/13 12:39:53;;;;;;;3.63;1.00;;;31.80;27.20;;;;;;7366687;19;20006;-83
2022/08/13 12:42:27;;;;;;;1.05;0.90;;;31.90;27.10;;;;;;7365575;19;20025;-83
2022/08/13 12:44:57;;;;;;;3.92;1.05;;;32.00;26.90;;;;;;7365684;19;20014;-81
2022/08/13 12:47:26;;;;;;;3.17;1.10;;;32.00;26.60;;;;;;7368958;19;20055;-83
2022/08/13 12:49:55;;;;;;;4.25;1.20;;;32.00;26.30;;;;;;7362165;19;20892;-86
2022/08/13 12:52:24;;;;;;;7.47;1.00;;;32.00;26.20;;;;;;7388893;19;20018;-82
2022/08/13 12:55:00;;;;;;;1.13;1.08;;;32.00;26.60;;;;;;7370911;19;20007;-87
2022/08/13 12:57:55;;;;;;;2.28;0.90;;;32.10;27.00;;;;;;7368703;19;20018;-82
2022/08/13 13:00:53;;;;;;;1.80;1.10;;;32.20;27.10;;;;;;7375404;19;20488;-88
2022/08/13 13:04:17;;;;;;;2.95;1.20;;;32.30;26.70;;;;;;7370724;19;20066;-86
2022/08/13 13:17:02;;;;;;;2.08;0.82;;;32.60;26.40;;;;;;7353975;19;20461;-88
2022/08/13 13:19:47;;;;;;;1.25;1.00;;;32.60;26.40;;;;;;7263851;19;2004400;-85
2022/08/13 13:22:32;;;;;;;4.35;1.25;;;32.60;26.60;;;;;;7385255;19;20799;-87
2022/08/13 13:51:07;;;;;;;4.03;0.93;;;33.10;25.10;;;;;;7364512;19;20439;-81
2022/08/13 13:53:49;;;;;;;1.02;0.90;;;33.20;25.40;;;;;;7363080;19;20097;-88
2022/08/13 13:56:26;;;;;;;2.88;1.05;;;33.20;25.40;;;;;;7363461;19;20011;-80
2022/08/13 13:59:41;;;;;;;6.88;1.00;;;33.30;25.50;;;;;;7363015;19;20018;-83
2022/08/13 14:05:42;;;;;;;4.28;0.90;;;33.40;25.20;;;;;;7320841;19;20010;-85
2022/08/13 14:28:43;;;;;;;0.75;0.75;;;33.70;24.70;;;;;;7222485;19;2004563;-84
2022/08/13 14:31:13;;;;;;;2.35;1.27;;;33.80;24.80;;;;;;7392169;19;20011;-85
2022/08/13 14:33:43;;;;;;;5.57;1.10;;;33.80;25.00;;;;;;7370726;19;20018;-85
2022/08/13 14:36:12;;;;;;;3.50;0.80;;;33.80;24.90;;;;;;7371589;19;20331;-85
2022/08/13 14:38:41;;;;;;;2.60;0.80;;;33.90;24.70;;;;;;7370696;19;20017;-84
2022/08/13 14:41:11;;;;;;;6.55;1.08;;;33.90;24.70;;;;;;7370295;19;20010;-85
2022/08/13 14:43:43;;;;;;;0.98;0.80;;;33.90;25.00;;;;;;7370947;19;20014;-85
2022/08/13 14:46:12;;;;;;;1.50;1.00;;;33.90;24.70;;;;;;7390284;19;20086;-85
2022/08/13 14:48:42;;;;;;;2.03;0.98;;;34.00;24.60;;;;;;7370429;19;20242;-85
2022/08/13 14:51:11;;;;;;;7.55;1.02;;;33.90;24.60;;;;;;7370980;19;20010;-85
2022/08/13 14:53:42;;;;;;;2.40;1.17;;;34.00;24.60;;;;;;7374145;19;20023;-85
2022/08/13 14:56:11;;;;;;;1.02;0.90;;;34.00;24.60;;;;;;7372294;19;20011;-85
2022/08/13 14:58:43;;;;;;;2.50;0.90;;;34.00;24.50;;;;;;7372161;19;20455;-85
2022/08/13 15:01:11;;;;;;;1.27;0.90;;;34.10;24.50;;;;;;7395427;19;20031;-85
2022/08/13 15:03:46;;;;;;;2.33;1.02;;;34.10;24.50;;;;;;7373963;19;20034;-84
2022/08/13 15:06:17;;;;;;;3.22;0.90;;;34.10;24.50;;;;;;7373881;19;20388;-84
2022/08/13 15:08:47;;;;;;;3.63;1.08;;;34.10;24.50;;;;;;7374042;19;20007;-84
2022/08/13 15:11:18;;;;;;;1.92;0.75;;;34.10;24.40;;;;;;7375387;19;20026;-84
2022/08/13 15:13:50;;;;;;;2.08;0.80;;;34.10;24.40;;;;;;7376085;19;20010;-84